KQAW/QAW METAR and TAF weather

Enter ICAO airport designator
Station Type Date Time Source
KQAW METAR 2018/03/16 05:58 UTC NOAA

KQAW 160558Z 32001KT 7SM FEW060 03/M06 A2976 RMK SLP081 WND DATA ESTMD ALSTG/SLP ESTMD LAST


Station Type Date Time Source
KQAW Decoded METAR 2018/03/16 05:58 UTC NOAA

Station name not available
Mar 16, 2018 - 01:58 AM EDT / 2018.03.16 0558 UTC
Wind: from the NW (320 degrees) at 1 MPH (1 KT):0
Visibility: 7 mile(s):0
Sky conditions: mostly clear
Temperature: 37 F (3 C)
Dew Point: 21 F (-6 C)
Relative Humidity: 51%
Pressure (altimeter): 29.76 in. Hg (1007 hPa)
ob: KQAW 160558Z 32001KT 7SM FEW060 03/M06 A2976 RMK SLP081 WND DATA ESTMD ALSTG/SLP ESTMD LAST
cycle: 6

Station Type Date Time Source
KQAW TAF UTC NOAA

Error!


Example: see airport list